Time;durP1;ratioP1;P1;durP2;ratioP2;P2;SDS_P1;SDS_P2;PMS_P1;PMS_P2;Temp;Humidity;BMP_temperature;BMP_pressure;BME280_temperature;BME280_humidity;BME280_pressure;Samples;Min_cycle;Max_cycle;Signal;HPM_P1;HPM_P2
2022/10/11 00:00:53;;;;;;;10.80;3.08;;;9.00;99.90;;;;;;5071888;28;20095;-75
2022/10/11 00:03:19;;;;;;;9.63;2.33;;;9.00;99.90;;;;;;5076247;28;20044;-74
2022/10/11 00:05:45;;;;;;;18.85;3.83;;;9.00;99.90;;;;;;5072919;28;20021;-74
2022/10/11 00:08:11;;;;;;;25.33;3.25;;;8.90;99.90;;;;;;5071985;28;20052;-74
2022/10/11 00:10:37;;;;;;;17.30;2.83;;;9.00;99.90;;;;;;5072548;28;20111;-74
2022/10/11 00:13:04;;;;;;;10.05;2.97;;;9.00;99.90;;;;;;5072495;28;20064;-75
2022/10/11 00:15:30;;;;;;;12.20;3.03;;;8.90;99.90;;;;;;5069954;28;20592;-73
2022/10/11 00:17:55;;;;;;;18.00;3.30;;;8.90;99.90;;;;;;5072357;28;20060;-72
2022/10/11 00:20:21;;;;;;;12.95;2.20;;;8.90;99.90;;;;;;5072297;28;20048;-74
2022/10/11 00:22:48;;;;;;;16.73;3.05;;;8.90;99.90;;;;;;5068739;28;20124;-74
2022/10/11 00:25:14;;;;;;;12.43;3.00;;;8.80;99.90;;;;;;5074151;28;20016;-74
2022/10/11 00:27:39;;;;;;;9.57;2.67;;;8.90;99.90;;;;;;5071974;28;20020;-74
2022/10/11 00:30:06;;;;;;;9.38;2.83;;;8.90;99.90;;;;;;5072409;28;20017;-73
2022/10/11 00:32:34;;;;;;;20.45;3.22;;;8.90;99.90;;;;;;5068266;28;20060;-74
2022/10/11 00:35:05;;;;;;;22.42;3.78;;;8.80;99.90;;;;;;5070521;28;20021;-73
2022/10/11 00:37:36;;;;;;;14.65;2.55;;;8.80;99.90;;;;;;5072141;28;20154;-73
2022/10/11 00:40:09;;;;;;;11.48;2.47;;;8.80;99.90;;;;;;5072210;28;20377;-73
2022/10/11 00:42:35;;;;;;;11.95;2.53;;;8.80;99.90;;;;;;5071188;28;20033;-73
2022/10/11 00:45:26;;;;;;;12.13;2.20;;;8.80;99.90;;;;;;5072009;28;20051;-73
2022/10/11 00:48:12;;;;;;;9.77;2.60;;;8.80;99.90;;;;;;5071494;28;20541;-73
2022/10/11 00:50:38;;;;;;;12.35;3.00;;;8.80;99.90;;;;;;5071638;28;20036;-73
2022/10/11 00:53:10;;;;;;;18.35;3.63;;;8.70;99.90;;;;;;5071556;28;20021;-74
2022/10/11 00:55:40;;;;;;;17.90;2.95;;;8.80;99.90;;;;;;5071654;28;20048;-75
2022/10/11 00:58:07;;;;;;;13.48;2.88;;;8.70;99.90;;;;;;5071525;28;20037;-74
2022/10/11 01:00:32;;;;;;;12.38;2.95;;;8.60;99.90;;;;;;5072877;28;20043;-73
2022/10/11 01:03:01;;;;;;;17.20;3.28;;;8.70;99.90;;;;;;5052282;28;20024;-73
2022/10/11 01:05:29;;;;;;;9.55;2.42;;;8.60;99.90;;;;;;5070132;28;20039;-75
2022/10/11 01:07:55;;;;;;;9.02;2.45;;;8.60;99.90;;;;;;5069549;28;20033;-74
2022/10/11 01:10:21;;;;;;;13.65;2.97;;;8.60;99.90;;;;;;5066855;28;20025;-72
2022/10/11 01:13:05;;;;;;;12.48;2.95;;;8.50;99.90;;;;;;5071027;28;20557;-72
2022/10/11 01:15:41;;;;;;;11.82;2.90;;;8.60;99.90;;;;;;5071053;28;20080;-74
2022/10/11 01:18:20;;;;;;;15.27;3.05;;;8.60;99.90;;;;;;5071236;28;20082;-74
2022/10/11 01:21:00;;;;;;;13.65;2.97;;;8.60;99.90;;;;;;5071013;28;20483;-73
2022/10/11 01:23:50;;;;;;;16.15;2.72;;;8.50;99.90;;;;;;5071241;28;20036;-72
2022/10/11 01:26:28;;;;;;;10.32;2.35;;;8.60;99.90;;;;;;5069298;28;20025;-72
2022/10/11 01:29:18;;;;;;;15.80;3.28;;;8.60;99.90;;;;;;5070930;28;20029;-72
2022/10/11 01:31:55;;;;;;;29.15;3.20;;;8.50;99.90;;;;;;5070627;28;20050;-73
2022/10/11 01:34:37;;;;;;;12.55;2.30;;;8.50;99.90;;;;;;5071334;28;20021;-74
2022/10/11 01:37:22;;;;;;;11.40;2.60;;;8.50;99.90;;;;;;5070495;28;20179;-73
2022/10/11 01:39:58;;;;;;;20.25;3.40;;;8.50;99.90;;;;;;5071081;28;20096;-72
2022/10/11 01:42:26;;;;;;;11.75;2.92;;;8.50;99.90;;;;;;5070977;28;20024;-73
2022/10/11 01:44:53;;;;;;;10.85;2.85;;;8.50;99.90;;;;;;5068842;28;20035;-74
2022/10/11 01:47:20;;;;;;;16.65;3.35;;;8.50;99.90;;;;;;5070614;28;20016;-73
2022/10/11 01:49:59;;;;;;;11.18;2.67;;;8.40;99.90;;;;;;5070874;28;20013;-72
2022/10/11 01:52:30;;;;;;;9.20;2.47;;;8.40;99.90;;;;;;5070937;28;20025;-74
2022/10/11 01:55:08;;;;;;;15.88;3.22;;;8.40;99.90;;;;;;5071456;28;20036;-72
2022/10/11 01:58:12;;;;;;;9.32;2.55;;;8.40;99.90;;;;;;5068744;28;20064;-74
2022/10/11 02:00:58;;;;;;;19.88;2.95;;;8.40;99.90;;;;;;5070939;28;20039;-73
2022/10/11 02:04:05;;;;;;;10.57;3.25;;;8.40;99.90;;;;;;5070391;28;20028;-73
2022/10/11 02:07:17;;;;;;;16.15;3.20;;;8.30;99.90;;;;;;4989340;28;20549;-75
2022/10/11 02:09:49;;;;;;;14.38;2.80;;;8.30;99.90;;;;;;5070255;28;20048;-74
2022/10/11 02:12:23;;;;;;;15.82;2.83;;;8.30;99.90;;;;;;5067649;28;20049;-75
2022/10/11 02:14:52;;;;;;;15.52;3.22;;;8.30;99.90;;;;;;5068601;28;20041;-72
2022/10/11 02:17:23;;;;;;;9.65;2.83;;;8.30;99.90;;;;;;5068178;28;20041;-72
2022/10/11 02:19:51;;;;;;;8.45;2.22;;;8.30;99.90;;;;;;5070392;28;20020;-74
2022/10/11 02:22:34;;;;;;;17.05;2.67;;;8.30;99.90;;;;;;5070399;28;20465;-74
2022/10/11 02:25:04;;;;;;;13.23;2.72;;;8.30;99.90;;;;;;5068858;28;20060;-74
2022/10/11 02:27:33;;;;;;;15.93;2.65;;;8.30;99.90;;;;;;5070346;28;20037;-74
2022/10/11 02:30:03;;;;;;;15.00;3.25;;;8.30;99.90;;;;;;5071002;28;20020;-74
2022/10/11 02:32:31;;;;;;;19.83;3.25;;;8.30;99.90;;;;;;5070275;28;20025;-75
2022/10/11 02:34:59;;;;;;;11.77;2.88;;;8.20;99.90;;;;;;5070893;28;20032;-73
2022/10/11 02:37:30;;;;;;;17.50;3.22;;;8.30;99.90;;;;;;5074589;28;21373;-73
2022/10/11 02:40:06;;;;;;;16.90;3.20;;;8.20;99.90;;;;;;5074501;28;20440;-74
2022/10/11 02:42:58;;;;;;;16.20;3.08;;;8.20;99.90;;;;;;5074241;28;20035;-75
2022/10/11 02:45:34;;;;;;;10.65;2.47;;;8.20;99.90;;;;;;5064749;28;20083;-74
2022/10/11 02:48:01;;;;;;;10.48;2.53;;;8.20;99.90;;;;;;5072352;28;20047;-75
2022/10/11 02:50:28;;;;;;;17.42;3.22;;;8.20;99.90;;;;;;5074051;28;20039;-75
2022/10/11 02:52:53;;;;;;;27.13;3.75;;;8.20;99.90;;;;;;5073854;28;20083;-73
2022/10/11 02:55:19;;;;;;;15.80;3.03;;;8.10;99.90;;;;;;5073904;28;20025;-74
2022/10/11 02:57:45;;;;;;;17.98;3.35;;;8.10;99.90;;;;;;5073826;28;20373;-73
2022/10/11 03:00:11;;;;;;;15.65;2.85;;;8.10;99.90;;;;;;5072276;28;20084;-74
2022/10/11 03:02:37;;;;;;;10.70;3.10;;;8.10;99.90;;;;;;5073937;28;20029;-73
2022/10/11 03:05:03;;;;;;;9.90;2.58;;;8.10;99.90;;;;;;5073578;28;20397;-73
2022/10/11 03:07:30;;;;;;;12.43;2.70;;;8.10;99.90;;;;;;5073822;28;20021;-74
2022/10/11 03:09:55;;;;;;;17.25;2.90;;;8.10;99.90;;;;;;5073928;28;20062;-74
2022/10/11 03:12:21;;;;;;;12.82;3.30;;;8.10;99.90;;;;;;5073332;28;20131;-74
2022/10/11 03:14:47;;;;;;;22.65;3.97;;;8.10;99.90;;;;;;5072870;28;20033;-74
2022/10/11 03:17:13;;;;;;;14.48;2.83;;;8.00;99.90;;;;;;5073731;28;20017;-73
2022/10/11 03:19:38;;;;;;;16.73;3.17;;;8.00;99.90;;;;;;5073191;28;20095;-75
2022/10/11 03:22:04;;;;;;;23.38;3.17;;;8.00;99.90;;;;;;5073137;28;20045;-74
2022/10/11 03:24:30;;;;;;;16.50;3.33;;;8.00;99.90;;;;;;5069572;28;20053;-74
2022/10/11 03:26:56;;;;;;;10.55;2.95;;;8.00;99.90;;;;;;5073439;28;20426;-74
2022/10/11 03:29:21;;;;;;;11.35;2.85;;;8.10;99.90;;;;;;5070673;28;20025;-75
2022/10/11 03:31:47;;;;;;;14.20;2.95;;;8.00;99.90;;;;;;5073142;28;20025;-72
2022/10/11 03:34:13;;;;;;;13.07;3.30;;;8.10;99.90;;;;;;5073004;28;20031;-73
2022/10/11 03:36:38;;;;;;;14.63;2.58;;;8.00;99.90;;;;;;5072929;28;20088;-73
2022/10/11 03:39:04;;;;;;;16.92;3.40;;;8.00;99.90;;;;;;5069469;28;20053;-73
2022/10/11 03:41:30;;;;;;;12.68;2.53;;;8.00;99.90;;;;;;5070443;28;20096;-74
2022/10/11 03:43:55;;;;;;;10.70;2.15;;;8.00;99.90;;;;;;5072889;28;20499;-73
2022/10/11 03:46:21;;;;;;;19.50;3.30;;;8.10;99.90;;;;;;5070088;28;20029;-72
2022/10/11 03:48:47;;;;;;;12.63;2.78;;;8.00;99.90;;;;;;5071964;28;20140;-74
2022/10/11 03:51:13;;;;;;;11.35;2.40;;;7.90;99.90;;;;;;5055148;28;20119;-73
2022/10/11 03:53:39;;;;;;;22.30;2.97;;;7.90;99.90;;;;;;5072895;28;20032;-73
2022/10/11 03:56:05;;;;;;;17.73;3.20;;;7.90;99.90;;;;;;5069537;28;20028;-73
2022/10/11 03:58:31;;;;;;;17.02;3.22;;;7.90;99.90;;;;;;5072515;28;20029;-74
2022/10/11 04:00:57;;;;;;;13.85;3.00;;;7.90;99.90;;;;;;5073299;28;20024;-73
2022/10/11 04:03:22;;;;;;;13.68;2.90;;;8.00;99.90;;;;;;5072671;28;20071;-73
2022/10/11 04:05:48;;;;;;;13.00;2.65;;;7.90;99.90;;;;;;5072765;28;20028;-73
2022/10/11 04:08:14;;;;;;;9.50;2.42;;;7.90;99.90;;;;;;5072827;28;20052;-73
2022/10/11 04:10:40;;;;;;;15.43;2.80;;;7.90;99.90;;;;;;5072195;28;20021;-73
2022/10/11 04:13:08;;;;;;;17.58;3.58;;;7.90;99.90;;;;;;5072150;28;20083;-74
2022/10/11 04:15:35;;;;;;;10.20;2.55;;;7.90;99.90;;;;;;5072119;28;20032;-73
2022/10/11 04:18:02;;;;;;;17.13;2.72;;;7.90;99.90;;;;;;5072177;28;20041;-74
2022/10/11 04:20:28;;;;;;;21.58;3.95;;;7.80;99.90;;;;;;5072375;28;20029;-76
2022/10/11 04:22:54;;;;;;;16.17;2.88;;;7.80;99.90;;;;;;5054092;28;20135;-74
2022/10/11 04:25:20;;;;;;;9.07;2.80;;;7.80;99.90;;;;;;5071922;28;20025;-73
2022/10/11 04:27:45;;;;;;;16.45;3.47;;;7.80;99.90;;;;;;5072206;28;20021;-72
2022/10/11 04:30:11;;;;;;;14.80;2.63;;;7.80;99.90;;;;;;5072088;28;20020;-74
2022/10/11 04:32:37;;;;;;;17.08;4.55;;;7.70;99.90;;;;;;5072254;28;20033;-74
2022/10/11 04:35:03;;;;;;;20.30;5.65;;;7.70;99.90;;;;;;5054344;28;20048;-74
2022/10/11 04:37:28;;;;;;;26.13;7.10;;;7.80;99.90;;;;;;5071775;28;20040;-75
2022/10/11 04:39:54;;;;;;;21.52;6.13;;;7.70;99.90;;;;;;5072135;28;20049;-73
2022/10/11 04:42:20;;;;;;;15.18;5.28;;;7.80;99.90;;;;;;5069817;28;20048;-74
2022/10/11 04:44:46;;;;;;;20.23;4.47;;;7.70;99.90;;;;;;5071865;28;20484;-74
2022/10/11 04:47:12;;;;;;;8.93;3.53;;;7.70;99.90;;;;;;5071608;28;20040;-76
2022/10/11 04:49:37;;;;;;;13.27;3.42;;;7.80;99.90;;;;;;5071796;28;20021;-73
2022/10/11 04:52:03;;;;;;;12.15;3.53;;;7.80;99.90;;;;;;5071773;28;20033;-74
2022/10/11 04:54:29;;;;;;;16.33;3.50;;;7.70;99.90;;;;;;5053922;28;20411;-73
2022/10/11 04:56:54;;;;;;;11.10;2.95;;;7.80;99.90;;;;;;5071816;28;20029;-75
2022/10/11 04:59:20;;;;;;;13.02;3.28;;;7.70;99.90;;;;;;5070418;28;20045;-75
2022/10/11 05:01:46;;;;;;;14.32;3.22;;;7.70;99.90;;;;;;5071325;28;20107;-73
2022/10/11 05:04:12;;;;;;;7.22;2.42;;;7.60;99.90;;;;;;5071882;28;20450;-74
2022/10/11 05:06:37;;;;;;;13.75;2.97;;;7.70;99.90;;;;;;5068683;28;20025;-74
2022/10/11 05:09:03;;;;;;;13.15;3.22;;;7.70;99.90;;;;;;5071392;28;20104;-73
2022/10/11 05:11:29;;;;;;;14.55;2.97;;;7.70;99.90;;;;;;5071089;28;20025;-75
2022/10/11 05:13:55;;;;;;;17.15;3.13;;;7.70;99.90;;;;;;5069021;28;20411;-75
2022/10/11 05:16:21;;;;;;;13.27;3.25;;;7.60;99.90;;;;;;5071464;28;20017;-74
2022/10/11 05:18:47;;;;;;;11.50;3.78;;;7.70;99.90;;;;;;5068728;28;20075;-73
2022/10/11 05:21:17;;;;;;;14.07;2.95;;;7.60;99.90;;;;;;5070849;28;20104;-74
2022/10/11 05:23:43;;;;;;;14.15;2.85;;;7.60;99.90;;;;;;5068728;28;20354;-74
2022/10/11 05:26:08;;;;;;;18.23;3.83;;;7.60;99.90;;;;;;5072110;28;20036;-76
2022/10/11 05:28:34;;;;;;;10.02;3.10;;;7.60;99.90;;;;;;5070156;28;20040;-75
2022/10/11 05:31:00;;;;;;;15.35;2.78;;;7.60;99.90;;;;;;5073693;28;20041;-75
2022/10/11 05:33:26;;;;;;;16.60;3.00;;;7.60;99.90;;;;;;5074263;28;20055;-75
2022/10/11 05:35:52;;;;;;;10.35;2.78;;;7.60;99.90;;;;;;5056662;28;20028;-75
2022/10/11 05:38:18;;;;;;;16.75;3.00;;;7.60;99.90;;;;;;5065170;28;20094;-74
2022/10/11 05:40:43;;;;;;;11.35;2.97;;;7.50;99.90;;;;;;5070129;28;20472;-74
2022/10/11 05:43:09;;;;;;;14.07;3.17;;;7.60;99.90;;;;;;5070157;28;20435;-74
2022/10/11 05:45:37;;;;;;;17.85;3.28;;;7.50;99.90;;;;;;5071520;28;20028;-76
2022/10/11 05:48:03;;;;;;;12.45;3.30;;;7.60;99.90;;;;;;5067489;28;20032;-74
2022/10/11 05:50:30;;;;;;;13.48;3.58;;;7.60;99.90;;;;;;5070745;28;20055;-74
2022/10/11 05:52:56;;;;;;;11.32;2.95;;;7.60;99.90;;;;;;5058702;28;20463;-76
2022/10/11 05:55:21;;;;;;;15.52;3.53;;;7.60;99.90;;;;;;5066533;28;20037;-74
2022/10/11 05:57:47;;;;;;;12.88;3.40;;;7.50;99.90;;;;;;5070145;28;20052;-74
2022/10/11 06:00:14;;;;;;;27.50;10.40;;;7.50;99.90;;;;;;5068795;28;20056;-74
2022/10/11 06:02:40;;;;;;;21.25;5.20;;;7.60;99.90;;;;;;5052508;28;20388;-75
2022/10/11 06:05:06;;;;;;;7.85;3.25;;;7.60;99.90;;;;;;5070715;28;20020;-73
2022/10/11 06:07:31;;;;;;;14.43;3.20;;;7.60;99.90;;;;;;5071067;28;20036;-74
2022/10/11 06:09:57;;;;;;;12.45;3.20;;;7.60;99.90;;;;;;5052979;28;20025;-73
2022/10/11 06:12:22;;;;;;;13.38;3.42;;;7.60;99.90;;;;;;5071849;28;20559;-74
2022/10/11 06:14:48;;;;;;;14.10;2.85;;;7.60;99.90;;;;;;5074652;28;20033;-74
2022/10/11 06:17:14;;;;;;;18.95;3.65;;;7.60;99.90;;;;;;5073164;28;20088;-73
2022/10/11 06:19:39;;;;;;;17.50;3.30;;;7.60;99.90;;;;;;5074884;28;20092;-73
2022/10/11 06:22:05;;;;;;;10.85;3.53;;;7.60;99.90;;;;;;5074530;28;20035;-74
2022/10/11 06:24:30;;;;;;;14.05;2.97;;;7.70;99.90;;;;;;5065500;28;20116;-76
2022/10/11 06:26:56;;;;;;;11.18;2.88;;;7.70;99.90;;;;;;5076685;28;20408;-74
2022/10/11 06:29:22;;;;;;;8.80;3.13;;;7.70;99.90;;;;;;5075894;28;20024;-75
2022/10/11 06:31:48;;;;;;;11.80;3.10;;;7.80;99.90;;;;;;5077886;28;20071;-75
2022/10/11 06:34:14;;;;;;;14.77;3.10;;;7.80;99.90;;;;;;5076472;28;20029;-75
2022/10/11 06:36:40;;;;;;;17.88;3.70;;;7.80;99.90;;;;;;5078023;28;20062;-75
2022/10/11 06:39:06;;;;;;;21.58;3.58;;;7.80;99.90;;;;;;5066579;28;20078;-73
2022/10/11 06:41:32;;;;;;;13.18;3.10;;;7.80;99.90;;;;;;5075080;28;20021;-75
2022/10/11 06:43:58;;;;;;;18.63;3.40;;;7.90;99.90;;;;;;5066426;28;20024;-74
2022/10/11 06:46:26;;;;;;;9.88;3.13;;;7.80;99.90;;;;;;5080390;28;20024;-76
2022/10/11 06:48:53;;;;;;;7.72;2.25;;;8.00;99.90;;;;;;5065815;28;20425;-75
2022/10/11 06:51:20;;;;;;;12.73;2.95;;;8.00;99.90;;;;;;5076858;28;20041;-73
2022/10/11 06:53:50;;;;;;;11.38;2.97;;;8.10;99.90;;;;;;5075634;28;20027;-73
2022/10/11 06:56:16;;;;;;;17.10;2.90;;;8.10;99.90;;;;;;5076209;28;20032;-73
2022/10/11 06:58:42;;;;;;;9.90;2.70;;;8.10;99.90;;;;;;5076423;28;20062;-72
2022/10/11 07:01:10;;;;;;;9.35;3.03;;;8.20;99.90;;;;;;5075367;28;20080;-75
2022/10/11 07:03:36;;;;;;;13.38;3.38;;;8.20;99.90;;;;;;5073225;28;20035;-73
2022/10/11 07:06:07;;;;;;;16.95;3.05;;;8.30;99.90;;;;;;5073103;28;20453;-73
2022/10/11 07:08:34;;;;;;;10.80;2.72;;;8.30;99.90;;;;;;5074139;28;20021;-74
2022/10/11 07:11:05;;;;;;;14.80;3.22;;;8.30;99.90;;;;;;5060478;28;20021;-72
2022/10/11 07:13:30;;;;;;;15.90;3.45;;;8.40;99.90;;;;;;5076831;28;20405;-73
2022/10/11 07:15:58;;;;;;;9.07;2.67;;;8.40;99.90;;;;;;5077923;28;20044;-74
2022/10/11 07:18:24;;;;;;;13.65;3.63;;;8.60;99.90;;;;;;5074443;28;20037;-73
2022/10/11 07:20:50;;;;;;;8.52;2.15;;;8.70;99.90;;;;;;5076885;28;20031;-73
2022/10/11 07:23:15;;;;;;;10.90;2.63;;;8.90;99.90;;;;;;5078436;28;20021;-73
2022/10/11 07:25:41;;;;;;;17.17;3.35;;;8.90;99.90;;;;;;5063059;28;20071;-74
2022/10/11 07:28:07;;;;;;;17.48;2.67;;;9.00;99.90;;;;;;5076639;28;20112;-73
2022/10/11 07:30:32;;;;;;;15.60;2.45;;;9.10;99.90;;;;;;5076858;28;20025;-75
2022/10/11 07:32:58;;;;;;;13.68;2.78;;;9.20;99.90;;;;;;5057450;28;20028;-75
2022/10/11 07:35:24;;;;;;;13.10;2.60;;;9.30;99.90;;;;;;5079803;28;20029;-73
2022/10/11 07:37:49;;;;;;;10.10;2.50;;;9.30;99.90;;;;;;5071846;28;20052;-75
2022/10/11 07:40:15;;;;;;;12.82;2.30;;;9.40;99.90;;;;;;5074190;28;20021;-73
2022/10/11 07:42:40;;;;;;;13.80;2.55;;;9.50;99.90;;;;;;5076438;28;20025;-73
2022/10/11 07:45:06;;;;;;;12.32;2.30;;;9.60;99.90;;;;;;5075756;28;20526;-74
2022/10/11 07:47:33;;;;;;;17.65;3.28;;;9.80;99.90;;;;;;5075464;28;20070;-76
2022/10/11 07:49:59;;;;;;;9.25;2.63;;;9.90;99.90;;;;;;5075280;28;20068;-73
2022/10/11 07:52:25;;;;;;;16.35;3.58;;;10.10;99.90;;;;;;5075150;28;20037;-74
2022/10/11 07:54:50;;;;;;;13.30;3.30;;;10.20;99.90;;;;;;5075443;28;20025;-73
2022/10/11 07:57:16;;;;;;;15.18;3.35;;;10.30;99.90;;;;;;5074563;28;20050;-73
2022/10/11 07:59:42;;;;;;;15.02;3.47;;;10.50;99.90;;;;;;5073276;28;20036;-75
2022/10/11 08:02:12;;;;;;;8.90;2.28;;;10.50;99.90;;;;;;5054434;28;20031;-76
2022/10/11 08:04:38;;;;;;;11.20;3.00;;;10.60;99.90;;;;;;5072569;28;20036;-73
2022/10/11 08:07:04;;;;;;;13.40;3.03;;;10.60;99.90;;;;;;5071888;28;20025;-74
2022/10/11 08:09:30;;;;;;;7.03;2.33;;;10.70;99.90;;;;;;5069795;28;20025;-74
2022/10/11 08:11:56;;;;;;;7.57;2.13;;;10.80;99.90;;;;;;5074777;28;20029;-74
2022/10/11 08:14:21;;;;;;;19.63;2.30;;;10.90;99.90;;;;;;5064313;28;20404;-74
2022/10/11 08:16:47;;;;;;;11.65;2.50;;;11.00;99.90;;;;;;5073277;28;20109;-73
2022/10/11 08:19:14;;;;;;;10.05;2.53;;;11.00;99.90;;;;;;5069350;28;20071;-74
2022/10/11 08:21:40;;;;;;;13.85;2.55;;;11.10;99.90;;;;;;5075439;28;20032;-75
2022/10/11 08:24:06;;;;;;;10.05;2.60;;;11.10;99.90;;;;;;5074711;28;20988;-76
2022/10/11 08:26:33;;;;;;;17.48;3.10;;;11.20;99.90;;;;;;5073415;28;20127;-76
2022/10/11 08:29:04;;;;;;;12.02;2.13;;;11.20;99.90;;;;;;5073566;28;20028;-75
2022/10/11 08:31:30;;;;;;;14.15;2.63;;;11.30;99.90;;;;;;5072762;28;20025;-75
2022/10/11 08:33:57;;;;;;;9.68;2.40;;;11.30;99.90;;;;;;5074245;28;20037;-74
2022/10/11 08:36:23;;;;;;;10.02;2.38;;;11.30;99.90;;;;;;5073388;28;20021;-75
2022/10/11 08:38:49;;;;;;;10.90;2.38;;;11.40;99.90;;;;;;5073191;28;20068;-74
2022/10/11 08:41:36;;;;;;;14.88;3.08;;;11.40;99.90;;;;;;5072825;28;20025;-75
2022/10/11 08:44:16;;;;;;;16.65;2.83;;;11.50;99.90;;;;;;5072174;28;20029;-78
2022/10/11 08:46:46;;;;;;;8.30;2.35;;;11.60;99.90;;;;;;5072606;28;20029;-77
2022/10/11 08:49:14;;;;;;;15.65;2.65;;;11.70;99.90;;;;;;5072225;28;20025;-75
2022/10/11 08:51:46;;;;;;;18.15;2.83;;;11.80;99.90;;;;;;5072367;28;20112;-75
2022/10/11 08:54:46;;;;;;;23.00;2.80;;;11.90;99.90;;;;;;5071731;28;20043;-75
2022/10/11 08:57:19;;;;;;;7.13;1.98;;;11.90;99.90;;;;;;5052790;28;20070;-76
2022/10/11 08:59:58;;;;;;;13.75;2.58;;;12.00;99.90;;;;;;5071222;28;20048;-75
2022/10/11 09:02:27;;;;;;;8.32;2.35;;;12.00;99.90;;;;;;5072072;28;20118;-73
2022/10/11 09:04:54;;;;;;;24.83;2.85;;;12.00;99.90;;;;;;5071296;28;20534;-74
2022/10/11 09:07:39;;;;;;;10.98;3.03;;;12.00;99.90;;;;;;5071612;28;20041;-75
2022/10/11 09:10:33;;;;;;;15.93;2.78;;;12.10;99.90;;;;;;5072122;28;20032;-75
2022/10/11 09:13:34;;;;;;;19.67;3.08;;;12.10;99.90;;;;;;5073331;28;20059;-78
2022/10/11 09:16:09;;;;;;;10.00;2.60;;;12.20;99.90;;;;;;5073132;28;20392;-74
2022/10/11 09:19:02;;;;;;;9.32;2.05;;;12.20;99.90;;;;;;5071314;28;20033;-73
2022/10/11 09:21:49;;;;;;;13.65;2.45;;;12.30;99.90;;;;;;5071286;28;20034;-76
2022/10/11 09:24:46;;;;;;;6.13;1.95;;;12.40;99.90;;;;;;5074760;28;20035;-75
2022/10/11 09:28:02;;;;;;;18.05;2.65;;;12.50;99.90;;;;;;5072901;28;20021;-75
2022/10/11 09:30:28;;;;;;;12.25;2.38;;;12.60;99.90;;;;;;5040724;28;20041;-75
2022/10/11 09:33:20;;;;;;;13.05;3.08;;;12.70;99.90;;;;;;5069619;28;20035;-74
2022/10/11 09:35:48;;;;;;;20.90;2.58;;;12.80;99.90;;;;;;5067736;28;20024;-73
2022/10/11 09:38:31;;;;;;;20.73;2.97;;;12.80;99.90;;;;;;5068762;28;20033;-76
2022/10/11 09:41:01;;;;;;;12.70;2.75;;;12.90;99.90;;;;;;5055833;28;20036;-75
2022/10/11 09:43:26;;;;;;;9.30;2.10;;;12.90;99.90;;;;;;5071319;28;20032;-74
2022/10/11 09:45:52;;;;;;;12.77;2.83;;;13.00;99.90;;;;;;5072076;28;20392;-79
2022/10/11 09:48:39;;;;;;;17.70;2.58;;;13.10;99.90;;;;;;5071490;28;20062;-73
2022/10/11 09:51:13;;;;;;;8.73;2.38;;;13.10;99.90;;;;;;5070264;28;20032;-74
2022/10/11 09:54:00;;;;;;;14.75;2.30;;;13.10;99.90;;;;;;5071023;28;20040;-76
2022/10/11 09:56:28;;;;;;;16.92;2.33;;;13.20;99.90;;;;;;5070513;28;20040;-78
2022/10/11 09:59:28;;;;;;;11.85;2.17;;;13.30;99.90;;;;;;5068037;28;20045;-78
2022/10/11 10:02:12;;;;;;;21.10;2.60;;;13.30;99.90;;;;;;5051825;28;20452;-75
2022/10/11 10:05:08;;;;;;;14.15;2.63;;;13.40;99.90;;;;;;5057534;28;20056;-77
2022/10/11 10:07:38;;;;;;;11.38;2.58;;;13.50;99.90;;;;;;5053122;28;20029;-77
2022/10/11 10:10:25;;;;;;;9.90;2.58;;;13.50;99.90;;;;;;5070147;28;20036;-78
2022/10/11 10:13:00;;;;;;;10.48;2.63;;;13.60;99.90;;;;;;5070159;28;20092;-76
2022/10/11 10:15:35;;;;;;;8.95;2.20;;;13.60;99.90;;;;;;5072593;28;20131;-73
2022/10/11 10:18:05;;;;;;;10.07;2.53;;;13.70;99.90;;;;;;5069352;28;20541;-78
2022/10/11 10:20:38;;;;;;;17.60;2.40;;;13.90;99.90;;;;;;5068694;28;20027;-74
2022/10/11 10:23:17;;;;;;;14.43;2.58;;;14.00;99.90;;;;;;5071306;28;20028;-75
2022/10/11 10:25:49;;;;;;;13.32;2.00;;;14.20;99.90;;;;;;5065041;28;20044;-73
2022/10/11 10:28:24;;;;;;;14.40;2.78;;;14.30;99.90;;;;;;5067111;28;20111;-74
2022/10/11 10:30:57;;;;;;;18.30;2.95;;;14.40;99.90;;;;;;5068081;28;20199;-74
2022/10/11 10:33:28;;;;;;;17.77;2.63;;;14.30;99.90;;;;;;5068279;28;20033;-75
2022/10/11 10:36:02;;;;;;;10.85;2.17;;;14.30;99.90;;;;;;5069362;28;20028;-74
2022/10/11 10:38:40;;;;;;;11.60;2.60;;;14.40;99.90;;;;;;5070116;28;20059;-77
2022/10/11 10:41:12;;;;;;;11.48;2.13;;;14.40;99.90;;;;;;5070147;28;20083;-77
2022/10/11 10:43:40;;;;;;;14.23;2.47;;;14.30;99.90;;;;;;5066800;28;20016;-76
2022/10/11 10:46:18;;;;;;;13.93;2.65;;;14.40;99.90;;;;;;5064760;28;20020;-76
2022/10/11 10:49:21;;;;;;;15.77;2.35;;;14.50;99.90;;;;;;5070356;28;20087;-77
2022/10/11 10:52:11;;;;;;;10.93;2.22;;;14.60;99.90;;;;;;5069212;28;20092;-77
2022/10/11 10:54:54;;;;;;;13.25;2.22;;;14.70;99.90;;;;;;5067490;28;20025;-78
2022/10/11 10:57:32;;;;;;;11.75;2.65;;;14.90;99.90;;;;;;5072459;28;20484;-76
2022/10/11 11:00:18;;;;;;;11.75;2.33;;;15.10;99.90;;;;;;5074492;28;20036;-76
2022/10/11 11:03:00;;;;;;;10.60;2.70;;;15.10;99.90;;;;;;5074441;28;20040;-75
2022/10/11 11:05:51;;;;;;;12.90;2.33;;;15.10;99.90;;;;;;5072573;28;20096;-79
2022/10/11 11:08:28;;;;;;;13.80;2.15;;;15.10;99.90;;;;;;5072488;28;20511;-76
2022/10/11 11:11:26;;;;;;;13.43;2.50;;;15.10;99.90;;;;;;5072597;28;20571;-77
2022/10/11 11:14:34;;;;;;;12.38;2.15;;;15.10;99.90;;;;;;5073435;28;20037;-76
2022/10/11 11:17:04;;;;;;;11.30;1.95;;;15.30;99.90;;;;;;5062312;28;20091;-77
2022/10/11 11:20:07;;;;;;;17.10;2.35;;;15.30;99.90;;;;;;5074635;28;20585;-77
2022/10/11 11:22:58;;;;;;;10.18;2.20;;;15.20;99.90;;;;;;5074111;28;20556;-76
2022/10/11 11:25:48;;;;;;;9.05;2.55;;;15.40;99.90;;;;;;5056083;28;20096;-77
2022/10/11 11:28:50;;;;;;;18.52;2.55;;;15.50;99.90;;;;;;5073057;28;20028;-76
2022/10/11 11:31:28;;;;;;;12.80;2.15;;;15.70;99.90;;;;;;5074171;28;20053;-78
2022/10/11 11:34:05;;;;;;;11.88;2.25;;;15.70;99.90;;;;;;5073763;28;20029;-74
2022/10/11 11:36:47;;;;;;;14.77;2.40;;;15.70;99.90;;;;;;5075188;28;20093;-77
2022/10/11 11:39:26;;;;;;;10.95;2.45;;;15.70;99.90;;;;;;5073940;28;20131;-77
2022/10/11 11:41:54;;;;;;;26.98;2.85;;;15.80;99.90;;;;;;5073029;28;20030;-79
2022/10/11 11:44:31;;;;;;;18.05;2.33;;;16.00;99.90;;;;;;5073533;28;20029;-75
2022/10/11 11:47:09;;;;;;;12.95;2.40;;;16.10;99.90;;;;;;5072401;28;20112;-78
2022/10/11 11:49:47;;;;;;;9.18;2.08;;;16.10;99.90;;;;;;5071715;28;20032;-79
2022/10/11 11:52:23;;;;;;;9.95;1.70;;;16.10;99.90;;;;;;5074417;28;20027;-77
2022/10/11 11:55:31;;;;;;;9.57;2.20;;;16.20;99.90;;;;;;5073435;28;20033;-77
2022/10/11 11:58:00;;;;;;;15.50;2.47;;;16.30;99.90;;;;;;5001918;28;20427;-78
2022/10/11 12:00:34;;;;;;;9.82;1.48;;;16.40;99.90;;;;;;5055786;28;20024;-79
2022/10/11 12:03:10;;;;;;;11.45;2.58;;;16.50;99.90;;;;;;5077683;28;20036;-79
2022/10/11 12:05:36;;;;;;;10.10;2.33;;;16.50;99.90;;;;;;5075260;28;20025;-76
2022/10/11 12:08:04;;;;;;;10.13;2.10;;;16.50;99.90;;;;;;5072887;28;20043;-77
2022/10/11 12:10:30;;;;;;;11.10;2.10;;;16.60;99.90;;;;;;5085408;28;20045;-75
2022/10/11 12:13:11;;;;;;;9.15;2.00;;;16.50;99.90;;;;;;5049380;28;20104;-76
2022/10/11 12:15:37;;;;;;;4.80;1.58;;;16.40;99.90;;;;;;5052638;28;20061;-74
2022/10/11 12:18:10;;;;;;;13.80;2.17;;;16.30;99.90;;;;;;5053431;28;20041;-76
2022/10/11 12:20:40;;;;;;;11.18;2.15;;;16.20;99.90;;;;;;5055045;28;20021;-79
2022/10/11 12:23:30;;;;;;;5.95;1.77;;;16.10;99.90;;;;;;5054821;28;20018;-75
2022/10/11 12:26:26;;;;;;;14.60;1.98;;;16.00;99.90;;;;;;5054128;28;20037;-80
2022/10/11 12:29:21;;;;;;;10.32;2.13;;;15.90;99.90;;;;;;5056341;28;20040;-75
2022/10/11 12:31:47;;;;;;;;;;;16.10;99.90;;;;;;5055874;28;20036;-77
2022/10/11 12:34:35;;;;;;;9.88;2.10;;;16.50;99.90;;;;;;5050866;28;19905;-78
2022/10/11 12:37:18;;;;;;;9.52;1.83;;;17.00;99.90;;;;;;5052632;28;20037;-76
2022/10/11 12:39:58;;;;;;;12.27;3.00;;;17.40;99.90;;;;;;5050848;28;20044;-77
2022/10/11 12:42:33;;;;;;;9.32;1.45;;;17.80;99.90;;;;;;5051063;28;20025;-80
2022/10/11 12:45:11;;;;;;;6.97;1.73;;;18.20;99.90;;;;;;5050931;28;20022;-77
2022/10/11 12:48:06;;;;;;;12.10;2.13;;;18.60;99.90;;;;;;5053018;28;20060;-76
2022/10/11 12:50:53;;;;;;;10.15;1.92;;;19.00;99.90;;;;;;5026435;28;20052;-75
2022/10/11 12:53:21;;;;;;;16.35;2.10;;;18.90;99.90;;;;;;5053619;28;20025;-76
2022/10/11 12:56:35;;;;;;;6.57;1.85;;;18.90;99.90;;;;;;5054216;28;20018;-74
2022/10/11 12:59:05;;;;;;;4.47;1.25;;;18.90;99.90;;;;;;5038014;28;20061;-76
2022/10/11 13:01:36;;;;;;;7.95;1.70;;;18.70;99.90;;;;;;5052598;28;20029;-77
2022/10/11 13:04:10;;;;;;;5.05;1.40;;;18.50;99.90;;;;;;5051271;28;20035;-77
2022/10/11 13:06:42;;;;;;;;;;;18.40;99.90;;;;;;5052744;28;20033;-76
2022/10/11 13:09:08;;;;;;;5.03;1.30;;;18.00;99.90;;;;;;5052288;28;19912;-73
2022/10/11 13:11:45;;;;;;;8.00;1.85;;;17.90;99.90;;;;;;5051668;28;20025;-78